Time;durP1;ratioP1;P1;durP2;ratioP2;P2;SDS_P1;SDS_P2;PMS_P1;PMS_P2;Temp;Humidity;BMP_temperature;BMP_pressure;BME280_temperature;BME280_humidity;BME280_pressure;Samples;Min_cycle;Max_cycle;Signal;HPM_P1;HPM_P2
2022/07/22 00:01:06;;;;;;;18.40;5.72;;;;;;;15.91;94.86;102005.69;5023646;28;20032;-75
2022/07/22 00:03:31;;;;;;;16.65;4.97;;;;;;;15.93;94.96;101998.31;5032196;28;20025;-75
2022/07/22 00:05:57;;;;;;;18.05;5.85;;;;;;;15.92;94.18;102004.72;5015086;28;21406;-75
2022/07/22 00:08:22;;;;;;;15.55;5.05;;;;;;;15.92;93.92;102002.00;5020196;28;20076;-75
2022/07/22 00:10:47;;;;;;;18.48;5.55;;;;;;;15.89;94.03;101996.81;5022365;28;20033;-75
2022/07/22 00:13:13;;;;;;;18.40;6.18;;;;;;;15.90;94.90;101999.41;5016759;28;20056;-75
2022/07/22 00:15:38;;;;;;;18.58;6.03;;;;;;;15.87;94.71;101998.78;5016671;28;20034;-75
2022/07/22 00:18:04;;;;;;;18.33;6.07;;;;;;;15.88;95.03;101995.09;5027275;28;20037;-75
2022/07/22 00:20:29;;;;;;;20.85;5.80;;;;;;;15.88;96.31;101998.66;5019353;28;20030;-75
2022/07/22 00:22:54;;;;;;;16.30;5.90;;;;;;;15.86;96.63;102002.47;5027665;28;20029;-75
2022/07/22 00:25:20;;;;;;;20.80;7.05;;;;;;;15.83;95.86;101989.16;5026177;28;20033;-75
2022/07/22 00:27:45;;;;;;;20.58;6.70;;;;;;;15.83;96.96;101992.72;5030985;28;20061;-75
2022/07/22 00:30:11;;;;;;;17.02;6.30;;;;;;;15.81;96.98;101999.25;5028858;28;20061;-75
2022/07/22 00:32:36;;;;;;;24.90;7.00;;;;;;;15.81;96.60;101999.25;5031783;28;20413;-75
2022/07/22 00:35:02;;;;;;;22.73;7.03;;;;;;;15.79;96.61;101990.38;5027626;28;20044;-75
2022/07/22 00:37:27;;;;;;;17.38;6.60;;;;;;;15.81;96.63;101992.00;5032547;28;20018;-75
2022/07/22 00:39:53;;;;;;;20.38;6.60;;;;;;;15.82;96.58;101993.72;5030831;28;20029;-75
2022/07/22 00:42:18;;;;;;;21.58;6.13;;;;;;;15.84;96.15;101993.59;5028189;28;20021;-75
2022/07/22 00:44:44;;;;;;;15.25;5.38;;;;;;;15.85;96.55;101995.31;5024343;28;20121;-75
2022/07/22 00:47:10;;;;;;;20.83;7.32;;;;;;;15.83;96.90;101997.31;5027198;28;20048;-75
2022/07/22 00:49:35;;;;;;;17.63;5.90;;;;;;;15.82;96.35;101995.56;5028158;28;20021;-75
2022/07/22 00:52:01;;;;;;;16.10;5.72;;;;;;;15.80;96.65;101992.09;5030167;28;20036;-75
2022/07/22 00:54:26;;;;;;;17.75;5.68;;;;;;;15.77;97.14;101984.16;5025758;28;20094;-75
2022/07/22 00:56:52;;;;;;;20.17;5.90;;;;;;;15.75;97.61;101984.28;5023717;28;20030;-75
2022/07/22 00:59:17;;;;;;;22.90;6.10;;;;;;;15.73;97.30;101983.56;5020064;28;20029;-75
2022/07/22 01:01:43;;;;;;;20.92;6.35;;;;;;;15.69;97.81;101977.50;5025837;28;20595;-75
2022/07/22 01:04:08;;;;;;;19.35;5.53;;;;;;;15.68;96.97;101973.06;5023772;28;20029;-75
2022/07/22 01:06:34;;;;;;;18.92;5.38;;;;;;;15.68;97.86;101967.66;5023539;28;20041;-75
2022/07/22 01:08:59;;;;;;;16.33;5.28;;;;;;;15.66;97.32;101975.03;5021545;28;20366;-75
2022/07/22 01:11:25;;;;;;;17.95;5.90;;;;;;;15.66;97.80;101980.44;5024535;28;20478;-75
2022/07/22 01:13:52;;;;;;;28.55;6.25;;;;;;;15.65;97.80;101983.28;5026364;28;20036;-75
2022/07/22 01:16:18;;;;;;;17.63;5.38;;;;;;;15.63;97.93;101974.41;5020201;28;20017;-75
2022/07/22 01:18:45;;;;;;;14.63;4.55;;;;;;;15.63;98.35;101975.25;5015147;28;20037;-75
2022/07/22 01:21:11;;;;;;;16.92;5.53;;;;;;;15.63;98.24;101977.13;5024407;28;20029;-75
2022/07/22 01:23:37;;;;;;;18.95;5.45;;;;;;;15.59;98.15;101971.06;5019797;28;20026;-75
2022/07/22 01:26:04;;;;;;;14.88;4.45;;;;;;;15.57;97.79;101970.31;5017818;28;20125;-75
2022/07/22 01:28:30;;;;;;;21.10;5.65;;;;;;;15.57;98.35;101973.03;5029655;28;20034;-75
2022/07/22 01:30:55;;;;;;;17.15;5.70;;;;;;;15.56;97.71;101965.88;5029782;28;20032;-75
2022/07/22 01:33:21;;;;;;;16.50;5.85;;;;;;;15.52;97.52;101969.78;5023495;28;20026;-75
2022/07/22 01:35:47;;;;;;;15.63;5.35;;;;;;;15.49;96.77;101970.91;5029064;28;20049;-75
2022/07/22 01:38:15;;;;;;;18.90;5.57;;;;;;;15.42;96.07;101971.47;5029173;28;20033;-75
2022/07/22 01:40:42;;;;;;;19.85;5.18;;;;;;;15.32;95.98;101969.47;5027852;28;20030;-75
2022/07/22 01:43:08;;;;;;;13.45;4.55;;;;;;;15.24;95.72;101971.88;5016036;28;20025;-75
2022/07/22 01:45:33;;;;;;;21.23;5.95;;;;;;;15.14;95.96;101973.56;5024112;28;20038;-75
2022/07/22 01:47:59;;;;;;;19.08;6.03;;;;;;;15.04;95.81;101965.28;5019205;28;20124;-75
2022/07/22 01:50:24;;;;;;;18.02;5.75;;;;;;;14.96;95.60;101976.66;5028556;28;20033;-75
2022/07/22 01:52:50;;;;;;;18.58;6.10;;;;;;;14.87;95.85;101969.22;5023721;28;20365;-75
2022/07/22 01:55:16;;;;;;;18.90;6.38;;;;;;;14.79;96.18;101972.50;5030209;28;20029;-75
2022/07/22 01:57:41;;;;;;;18.45;5.63;;;;;;;14.73;96.32;101978.38;5027946;28;20045;-75
2022/07/22 02:00:08;;;;;;;17.10;5.93;;;;;;;14.67;96.99;101974.28;5028849;28;20029;-75
2022/07/22 02:02:34;;;;;;;20.40;6.82;;;;;;;14.68;97.95;101988.66;5027466;28;20123;-75
2022/07/22 02:04:59;;;;;;;18.58;5.80;;;;;;;14.68;98.20;101970.59;5034227;28;20053;-75
2022/07/22 02:07:25;;;;;;;20.25;6.22;;;;;;;14.71;98.49;101971.34;5029033;28;20416;-75
2022/07/22 02:09:51;;;;;;;19.80;6.45;;;;;;;14.68;98.13;101965.19;5023519;28;20059;-75
2022/07/22 02:12:16;;;;;;;18.52;5.72;;;;;;;14.70;99.09;101975.00;5020360;28;20084;-75
2022/07/22 02:14:42;;;;;;;20.02;5.88;;;;;;;14.71;99.31;101971.34;5015556;28;20044;-75
2022/07/22 02:17:07;;;;;;;17.00;5.80;;;;;;;14.75;99.82;101964.72;5021626;28;20033;-75
2022/07/22 02:19:32;;;;;;;21.58;5.97;;;;;;;14.77;99.56;101960.06;5022688;28;20022;-75
2022/07/22 02:21:58;;;;;;;19.27;5.95;;;;;;;14.78;99.61;101961.78;5032470;28;20371;-75
2022/07/22 02:24:23;;;;;;;21.92;7.32;;;;;;;14.79;99.46;101960.81;5027709;28;20025;-75
2022/07/22 02:26:48;;;;;;;23.20;5.82;;;;;;;14.81;99.66;101964.28;5032101;28;20505;-75
2022/07/22 02:29:14;;;;;;;17.67;6.00;;;;;;;14.81;99.60;101965.13;5021803;28;20095;-75
2022/07/22 02:31:39;;;;;;;18.25;6.35;;;;;;;14.82;99.90;101960.59;5036169;28;20018;-75
2022/07/22 02:34:05;;;;;;;21.48;6.40;;;;;;;14.81;100.00;101967.81;5029936;28;20034;-75
2022/07/22 02:36:30;;;;;;;19.58;6.25;;;;;;;14.83;100.00;101959.59;5019938;28;21884;-75
2022/07/22 02:38:55;;;;;;;18.42;6.13;;;;;;;14.83;100.00;101965.91;5024352;28;20044;-75
2022/07/22 02:41:21;;;;;;;18.85;6.10;;;;;;;14.86;100.00;101956.66;5031912;28;20047;-75
2022/07/22 02:43:46;;;;;;;22.50;7.22;;;;;;;14.89;100.00;101953.75;5028199;28;20021;-75
2022/07/22 02:46:11;;;;;;;19.05;6.50;;;;;;;14.94;100.00;101956.97;5025546;28;20489;-75
2022/07/22 02:48:37;;;;;;;19.02;6.13;;;;;;;14.97;99.89;101954.03;5028517;28;20495;-75
2022/07/22 02:51:03;;;;;;;21.73;7.70;;;;;;;14.99;100.00;101956.63;5025504;28;20029;-75
2022/07/22 02:53:28;;;;;;;22.27;6.72;;;;;;;15.01;100.00;101951.97;5033560;28;20036;-75
2022/07/22 02:55:53;;;;;;;20.08;7.10;;;;;;;15.00;99.64;101952.94;5029176;28;20037;-75
2022/07/22 02:58:19;;;;;;;19.00;6.45;;;;;;;15.00;99.74;101951.09;5029908;28;20030;-75
2022/07/22 03:00:44;;;;;;;17.27;6.20;;;;;;;14.98;99.74;101952.22;5027882;28;20040;-75
2022/07/22 03:03:09;;;;;;;19.27;7.70;;;;;;;14.95;100.00;101945.16;5021135;28;20033;-75
2022/07/22 03:05:34;;;;;;;20.38;7.00;;;;;;;14.94;99.72;101940.72;5027994;28;20076;-75
2022/07/22 03:08:00;;;;;;;20.85;7.00;;;;;;;14.93;99.95;101932.72;5016677;28;20086;-75
2022/07/22 03:10:25;;;;;;;19.02;6.65;;;;;;;14.91;99.72;101935.53;5031644;28;20470;-75
2022/07/22 03:12:50;;;;;;;19.45;6.25;;;;;;;14.89;99.72;101939.34;5027076;28;20508;-75
2022/07/22 03:15:16;;;;;;;20.92;7.28;;;;;;;14.85;99.73;101938.72;5024389;28;20056;-75
2022/07/22 03:17:41;;;;;;;20.25;6.85;;;;;;;14.82;99.90;101933.53;5032228;28;20034;-75
2022/07/22 03:20:08;;;;;;;19.27;5.75;;;;;;;14.83;99.95;101935.25;5024934;28;20040;-75
2022/07/22 03:22:34;;;;;;;22.17;7.10;;;;;;;14.80;100.00;101938.19;5020486;28;20032;-75
2022/07/22 03:24:59;;;;;;;22.75;7.13;;;;;;;14.81;100.00;101934.50;5037289;28;20025;-75
2022/07/22 03:27:25;;;;;;;17.25;6.03;;;;;;;14.80;100.00;101935.47;5022834;28;20038;-75
2022/07/22 03:29:51;;;;;;;16.75;6.25;;;;;;;14.76;100.00;101937.56;5028990;28;20041;-75
2022/07/22 03:32:16;;;;;;;18.25;6.63;;;;;;;14.74;100.00;101936.78;5029985;28;20029;-75
2022/07/22 03:34:42;;;;;;;19.83;6.80;;;;;;;14.73;100.00;101932.38;5031595;28;20041;-75
2022/07/22 03:37:07;;;;;;;17.38;5.63;;;;;;;14.72;100.00;101932.47;5029070;28;20037;-75
2022/07/22 03:39:32;;;;;;;18.40;6.10;;;;;;;14.70;100.00;101932.59;5024163;28;20034;-75
2022/07/22 03:41:58;;;;;;;18.55;6.47;;;;;;;14.69;99.43;101936.28;5020577;28;20104;-75
2022/07/22 03:44:23;;;;;;;18.58;6.05;;;;;;;14.67;99.63;101941.78;5026349;28;20029;-75
2022/07/22 03:46:48;;;;;;;19.48;7.15;;;;;;;14.68;99.87;101942.66;5019079;28;20037;-75
2022/07/22 03:49:14;;;;;;;22.77;6.97;;;;;;;14.66;99.73;101945.47;5027121;28;20068;-75
2022/07/22 03:51:39;;;;;;;17.67;6.45;;;;;;;14.67;100.00;101941.78;5028029;28;20033;-75
2022/07/22 03:54:04;;;;;;;20.73;7.25;;;;;;;14.69;100.00;101944.38;5030668;28;20393;-75
2022/07/22 03:56:30;;;;;;;22.23;7.13;;;;;;;14.72;100.00;101948.72;5030721;28;20041;-75
2022/07/22 03:58:55;;;;;;;17.38;6.72;;;;;;;14.74;100.00;101946.75;5019337;28;20026;-75
2022/07/22 04:01:20;;;;;;;18.33;6.60;;;;;;;14.77;99.95;101938.41;5024707;28;20028;-75
2022/07/22 04:03:45;;;;;;;20.45;7.88;;;;;;;14.78;100.00;101941.00;5022477;28;20021;-75
2022/07/22 04:06:11;;;;;;;21.25;7.50;;;;;;;14.80;99.71;101954.41;5024818;28;20036;-75
2022/07/22 04:08:36;;;;;;;21.17;7.15;;;;;;;14.81;99.97;101951.59;5025623;28;20022;-75
2022/07/22 04:11:01;;;;;;;18.55;6.60;;;;;;;14.83;100.00;101959.59;5020688;28;20075;-75
2022/07/22 04:13:27;;;;;;;20.83;7.53;;;;;;;14.84;100.00;101956.78;5027048;28;20056;-75
2022/07/22 04:15:52;;;;;;;21.27;6.78;;;;;;;14.87;100.00;101961.09;5027919;28;20435;-75
2022/07/22 04:18:17;;;;;;;20.70;6.75;;;;;;;14.89;100.00;101952.88;5020111;28;20041;-75
2022/07/22 04:20:43;;;;;;;22.77;7.50;;;;;;;14.91;100.00;101954.50;5019645;28;20021;-75
2022/07/22 04:23:08;;;;;;;18.48;7.10;;;;;;;14.90;100.00;101955.47;5026280;28;20021;-75
2022/07/22 04:25:33;;;;;;;21.33;7.75;;;;;;;14.89;100.00;101956.47;5024168;28;20076;-75
2022/07/22 04:27:59;;;;;;;19.33;6.93;;;;;;;14.88;100.00;101952.03;5028680;28;20049;-75
2022/07/22 04:30:24;;;;;;;21.33;8.65;;;;;;;14.90;100.00;101957.31;5028295;28;20485;-75
2022/07/22 04:32:49;;;;;;;22.00;7.80;;;;;;;14.89;100.00;101956.47;5023107;28;20021;-75
2022/07/22 04:35:14;;;;;;;19.13;6.60;;;;;;;14.93;100.00;101951.66;5022976;28;20141;-75
2022/07/22 04:37:40;;;;;;;22.17;7.18;;;;;;;14.94;100.00;101961.53;5024092;28;20116;-75
2022/07/22 04:40:06;;;;;;;20.42;7.45;;;;;;;14.96;100.00;101955.00;5015908;28;20026;-75
2022/07/22 04:42:31;;;;;;;21.17;6.65;;;;;;;14.99;100.00;101946.69;5031156;28;20041;-75
2022/07/22 04:44:56;;;;;;;17.98;7.18;;;;;;;15.01;100.00;101950.13;5024177;28;20116;-75
2022/07/22 04:47:21;;;;;;;20.73;7.20;;;;;;;15.06;100.00;101948.91;5023739;28;20034;-75
2022/07/22 04:49:47;;;;;;;20.63;7.32;;;;;;;15.07;100.00;101942.53;5029285;28;20017;-75
2022/07/22 04:52:12;;;;;;;21.73;8.10;;;;;;;15.10;100.00;101942.31;5030577;28;20025;-75
2022/07/22 04:54:37;;;;;;;19.90;7.43;;;;;;;15.11;100.00;101933.19;5014665;28;20119;-75
2022/07/22 04:57:03;;;;;;;22.98;7.72;;;;;;;15.10;99.76;101936.88;5016272;28;20026;-75
2022/07/22 04:59:28;;;;;;;23.10;6.88;;;;;;;15.12;100.00;101932.22;5030570;28;20029;-75
2022/07/22 05:01:53;;;;;;;21.55;7.57;;;;;;;15.14;100.00;101939.25;5023551;28;20064;-75
2022/07/22 05:04:19;;;;;;;22.58;7.93;;;;;;;15.17;100.00;101935.44;5041926;28;20035;-75
2022/07/22 05:06:44;;;;;;;24.52;7.57;;;;;;;15.17;100.00;101941.72;5030197;28;20029;-75
2022/07/22 05:09:09;;;;;;;20.25;7.10;;;;;;;15.19;99.93;101938.88;5015426;28;20029;-75
2022/07/22 05:11:35;;;;;;;20.67;7.78;;;;;;;15.19;100.00;101933.47;5017600;28;20029;-75
2022/07/22 05:14:00;;;;;;;19.27;6.72;;;;;;;15.23;100.00;101931.38;5025776;28;20045;-75
2022/07/22 05:16:25;;;;;;;23.23;8.02;;;;;;;15.25;100.00;101927.59;5019709;28;20497;-75
2022/07/22 05:18:51;;;;;;;20.92;7.13;;;;;;;15.29;100.00;101939.91;5029224;28;20448;-75
2022/07/22 05:21:16;;;;;;;24.48;8.77;;;;;;;15.33;100.00;101935.13;5025675;28;20032;-75
2022/07/22 05:23:42;;;;;;;21.10;7.85;;;;;;;15.37;100.00;101932.09;5013200;28;20477;-75
2022/07/22 05:26:07;;;;;;;19.85;7.10;;;;;;;15.42;100.00;101933.56;5042513;28;20086;-75
2022/07/22 05:28:33;;;;;;;21.08;7.78;;;;;;;15.44;100.00;101931.59;5030317;28;20100;-75
2022/07/22 05:30:58;;;;;;;21.70;7.15;;;;;;;15.47;100.00;101934.06;5028804;28;20029;-75
2022/07/22 05:33:23;;;;;;;23.52;8.88;;;;;;;15.49;100.00;101934.81;5038643;28;20136;-75
2022/07/22 05:35:49;;;;;;;23.42;8.25;;;;;;;15.52;100.00;101937.28;5030264;28;20036;-75
2022/07/22 05:38:14;;;;;;;23.42;7.95;;;;;;;15.54;99.93;101938.03;5025964;28;20497;-75
2022/07/22 05:40:39;;;;;;;23.02;7.72;;;;;;;15.57;99.53;101942.38;5013551;28;20042;-75
2022/07/22 05:43:05;;;;;;;21.25;8.50;;;;;;;15.59;99.45;101941.25;5025349;28;20048;-75
2022/07/22 05:45:30;;;;;;;21.98;8.60;;;;;;;15.63;100.00;101950.03;5018116;28;20038;-75
2022/07/22 05:47:56;;;;;;;19.85;8.02;;;;;;;15.66;100.00;101947.06;5014579;28;20026;-75
2022/07/22 05:50:21;;;;;;;22.27;8.60;;;;;;;15.70;100.00;101948.56;5016083;28;20443;-75
2022/07/22 05:52:46;;;;;;;23.80;9.27;;;;;;;15.76;100.00;101944.50;5028036;28;20382;-75
2022/07/22 05:55:12;;;;;;;25.55;9.50;;;;;;;15.79;99.32;101947.03;5026803;28;20061;-75
2022/07/22 05:57:37;;;;;;;24.48;8.00;;;;;;;15.87;99.84;101939.13;5012883;28;20473;-75
2022/07/22 06:00:04;;;;;;;24.90;9.48;;;;;;;15.94;99.94;101944.94;5026942;28;20033;-76
2022/07/22 06:02:29;;;;;;;22.80;8.15;;;;;;;16.00;99.91;101937.22;5026595;28;20037;-76
2022/07/22 06:04:55;;;;;;;29.90;8.55;;;;;;;16.06;99.63;101939.41;5028885;28;20055;-76
2022/07/22 06:07:20;;;;;;;23.88;8.85;;;;;;;16.07;97.96;101946.56;5034557;28;20029;-76
2022/07/22 06:09:46;;;;;;;23.33;7.93;;;;;;;16.15;98.84;101939.66;5027998;28;20192;-76
2022/07/22 06:12:11;;;;;;;20.15;8.90;;;;;;;16.18;97.53;101945.72;5030117;28;20473;-76
2022/07/22 06:14:36;;;;;;;21.60;8.25;;;;;;;16.22;97.44;101952.63;5027244;28;20037;-76
2022/07/22 06:17:02;;;;;;;20.73;7.35;;;;;;;16.27;97.57;101945.94;5024479;28;20032;-76
2022/07/22 06:19:29;;;;;;;21.17;7.53;;;;;;;16.34;98.71;101947.19;5021847;28;20098;-76
2022/07/22 06:21:54;;;;;;;22.55;7.40;;;;;;;16.36;95.88;101943.38;5025075;28;20531;-76
2022/07/22 06:24:19;;;;;;;24.67;7.03;;;;;;;16.38;94.08;101948.66;5030165;28;20021;-76
2022/07/22 06:26:45;;;;;;;23.13;6.55;;;;;;;16.39;93.39;101943.13;5028806;28;20132;-75
2022/07/22 06:29:10;;;;;;;21.38;7.15;;;;;;;16.39;90.55;101945.81;5029846;28;20063;-76
2022/07/22 06:31:35;;;;;;;18.45;5.63;;;;;;;16.48;92.27;101946.09;5020315;28;20026;-76
2022/07/22 06:34:05;;;;;;;17.65;5.20;;;;;;;16.55;92.28;101950.03;5023411;28;20033;-76
2022/07/22 06:36:31;;;;;;;15.10;5.22;;;;;;;16.59;90.67;101940.66;5021935;28;20048;-76
2022/07/22 06:38:56;;;;;;;20.05;5.75;;;;;;;16.66;90.09;101946.44;5020945;28;20447;-76
2022/07/22 06:41:21;;;;;;;21.92;5.90;;;;;;;16.71;91.55;101939.63;5023943;28;20025;-76
2022/07/22 06:43:46;;;;;;;15.52;4.97;;;;;;;16.75;89.87;101935.69;5022887;28;20067;-76
2022/07/22 06:46:12;;;;;;;17.42;5.70;;;;;;;16.75;88.96;101930.25;5021242;28;20033;-76
2022/07/22 06:48:37;;;;;;;18.25;5.35;;;;;;;16.76;89.64;101941.97;5022811;28;20044;-76
2022/07/22 06:51:02;;;;;;;18.00;5.30;;;;;;;16.74;89.16;101936.66;5023724;28;21210;-76
2022/07/22 06:53:28;;;;;;;19.38;5.10;;;;;;;16.75;90.51;101943.84;5023890;28;20029;-76
2022/07/22 06:55:53;;;;;;;17.10;4.43;;;;;;;16.78;88.81;101940.00;5022012;28;20022;-76
2022/07/22 06:58:19;;;;;;;14.90;4.18;;;;;;;16.86;88.74;101944.78;5026701;28;20022;-76
2022/07/22 07:00:44;;;;;;;16.50;4.43;;;;;;;16.88;87.29;101950.97;5021858;28;20304;-76
2022/07/22 07:03:09;;;;;;;16.08;4.20;;;;;;;16.90;88.95;101940.88;5020864;28;20029;-76
2022/07/22 07:05:35;;;;;;;12.88;4.15;;;;;;;16.90;88.60;101939.00;5023133;28;20029;-76
2022/07/22 07:08:00;;;;;;;15.05;4.07;;;;;;;16.91;87.97;101939.88;5025801;28;20064;-76
2022/07/22 07:10:25;;;;;;;13.93;3.55;;;;;;;16.89;83.73;101931.00;5023758;28;20052;-77
2022/07/22 07:12:55;;;;;;;15.27;3.78;;;;;;;16.93;83.48;101927.91;5023547;28;20076;-76
2022/07/22 07:15:20;;;;;;;9.30;3.00;;;;;;;16.97;81.27;101927.63;5021524;28;20072;-76
2022/07/22 07:17:46;;;;;;;8.18;2.83;;;;;;;17.01;82.13;101932.69;5027927;28;20462;-76
2022/07/22 07:20:11;;;;;;;11.30;3.38;;;;;;;17.04;82.54;101924.31;5021843;28;20368;-76
2022/07/22 07:22:36;;;;;;;9.05;2.83;;;;;;;17.08;85.76;101920.31;5025517;28;20026;-76
2022/07/22 07:25:04;;;;;;;11.80;3.28;;;;;;;17.07;85.48;101917.72;5044588;28;20040;-76
2022/07/22 07:27:29;;;;;;;11.80;3.30;;;;;;;17.02;84.94;101926.25;5029196;28;20046;-76
2022/07/22 07:29:55;;;;;;;10.23;3.08;;;;;;;17.03;86.46;101922.56;5030453;28;20040;-76
2022/07/22 07:32:20;;;;;;;8.98;2.72;;;;;;;17.02;85.41;101923.53;5029640;28;20485;-76
2022/07/22 07:34:45;;;;;;;13.40;3.58;;;;;;;17.05;89.02;101936.88;5030117;28;20048;-76
2022/07/22 07:37:10;;;;;;;12.05;3.30;;;;;;;17.08;86.94;101927.59;5029609;28;20033;-76
2022/07/22 07:39:36;;;;;;;13.85;3.30;;;;;;;17.08;81.17;101931.16;5028667;28;20033;-76
2022/07/22 07:42:01;;;;;;;9.48;3.17;;;;;;;17.09;78.71;101923.91;5030396;28;20041;-75
2022/07/22 07:44:26;;;;;;;14.18;3.28;;;;;;;17.10;80.41;101915.63;5029863;28;20028;-75
2022/07/22 07:46:52;;;;;;;9.65;3.00;;;;;;;17.15;85.02;101917.09;5031263;28;20025;-75
2022/07/22 07:49:17;;;;;;;9.18;3.20;;;;;;;17.18;83.97;101919.56;5028998;28;20018;-75
2022/07/22 07:51:42;;;;;;;11.48;3.33;;;;;;;17.20;86.18;101928.44;5024994;28;20048;-76
2022/07/22 07:54:08;;;;;;;12.88;3.70;;;;;;;17.18;87.48;101925.84;5042646;28;20025;-75
2022/07/22 07:56:33;;;;;;;11.77;3.70;;;;;;;17.18;85.75;101925.00;5028692;28;20110;-75
2022/07/22 07:58:58;;;;;;;10.00;3.25;;;;;;;17.14;86.45;101924.38;5028876;28;20649;-75
2022/07/22 08:01:23;;;;;;;13.00;3.13;;;;;;;17.18;85.71;101925.00;5019293;28;20486;-75
2022/07/22 08:03:49;;;;;;;14.32;3.25;;;;;;;17.23;79.86;101920.00;5023621;28;20052;-76
2022/07/22 08:06:14;;;;;;;16.60;3.78;;;;;;;17.32;79.19;101923.81;5032881;28;20079;-75
2022/07/22 08:08:39;;;;;;;10.63;3.45;;;;;;;17.41;78.87;101921.16;5031443;28;20496;-75
2022/07/22 08:11:05;;;;;;;13.00;3.10;;;;;;;17.50;78.34;101918.63;5033915;28;20041;-75
2022/07/22 08:13:30;;;;;;;9.90;3.35;;;;;;;17.56;75.66;101919.00;5029923;28;20112;-75
2022/07/22 08:15:55;;;;;;;11.77;3.58;;;;;;;17.62;75.41;101920.31;5024842;28;20521;-75
2022/07/22 08:18:21;;;;;;;12.20;3.47;;;;;;;17.70;75.14;101915.09;5026610;28;20038;-75
2022/07/22 08:20:46;;;;;;;11.75;2.85;;;;;;;17.73;72.73;101909.38;5035516;28;20087;-75
2022/07/22 08:23:12;;;;;;;11.65;3.20;;;;;;;17.82;73.03;101922.16;5035174;28;20053;-75
2022/07/22 08:25:37;;;;;;;10.50;2.92;;;;;;;17.91;72.03;101922.41;5029426;28;20061;-75
2022/07/22 08:28:03;;;;;;;10.55;2.90;;;;;;;17.96;68.68;101915.53;5030782;28;20053;-75
2022/07/22 08:30:28;;;;;;;7.85;2.38;;;;;;;18.02;69.87;101916.84;5027839;28;20366;-74
2022/07/22 08:32:54;;;;;;;7.22;2.55;;;;;;;18.10;70.20;101922.50;5040802;28;20551;-74
2022/07/22 08:35:19;;;;;;;8.98;2.60;;;;;;;18.22;70.55;101923.25;5032024;28;20103;-74
2022/07/22 08:37:47;;;;;;;8.32;2.58;;;;;;;18.32;71.76;101918.72;5043571;28;20440;-74
2022/07/22 08:40:12;;;;;;;9.23;2.65;;;;;;;18.38;68.90;101913.75;5030836;28;20033;-74
2022/07/22 08:42:39;;;;;;;11.88;2.72;;;;;;;18.39;71.24;101912.72;5047797;28;20063;-74
2022/07/22 08:45:06;;;;;;;7.95;2.70;;;;;;;18.38;69.95;101909.16;5030710;28;20061;-75
2022/07/22 08:47:32;;;;;;;11.30;3.15;;;;;;;18.37;71.09;101898.41;5028628;28;20436;-75
2022/07/22 08:49:57;;;;;;;8.93;3.13;;;;;;;18.34;69.97;101905.81;5027033;28;20029;-75
2022/07/22 08:52:22;;;;;;;10.20;3.05;;;;;;;18.33;71.07;101906.84;5040850;28;20022;-75
2022/07/22 08:54:48;;;;;;;13.70;3.33;;;;;;;18.32;69.08;101905.13;5035667;28;20621;-75
2022/07/22 08:57:13;;;;;;;8.43;2.70;;;;;;;18.34;70.50;101902.25;5027242;28;20068;-75
2022/07/22 08:59:55;;;;;;;15.18;3.25;;;;;;;18.37;72.48;101898.41;5024729;28;20435;-75
2022/07/22 09:02:21;;;;;;;8.88;3.00;;;;;;;18.39;74.68;101901.84;5022014;28;20049;-75
2022/07/22 09:05:05;;;;;;;12.70;3.00;;;;;;;18.44;74.62;101903.16;5023749;28;20063;-75
2022/07/22 09:07:34;;;;;;;9.18;2.50;;;;;;;18.45;73.54;101917.63;5026192;28;20172;-75
2022/07/22 09:10:00;;;;;;;7.45;2.58;;;;;;;18.47;72.98;101908.31;5025994;28;20389;-75
2022/07/22 09:12:28;;;;;;;10.75;2.83;;;;;;;18.45;70.72;101918.50;5027231;28;20021;-75
2022/07/22 09:14:56;;;;;;;9.05;2.55;;;;;;;18.44;69.31;101908.59;5027614;28;20392;-75
2022/07/22 09:17:29;;;;;;;9.45;2.65;;;;;;;18.46;74.07;101903.88;5025836;28;20361;-75
2022/07/22 09:19:56;;;;;;;8.35;2.97;;;;;;;18.47;74.88;101902.00;5026096;28;20025;-75
2022/07/22 09:22:36;;;;;;;12.35;3.00;;;;;;;18.49;71.41;101900.88;5025962;28;20037;-75
2022/07/22 09:25:28;;;;;;;11.65;3.03;;;;;;;18.50;71.62;101899.88;5027219;28;20056;-75
2022/07/22 09:28:11;;;;;;;10.30;3.13;;;;;;;18.51;71.26;101898.03;5032587;28;20049;-75
2022/07/22 09:30:48;;;;;;;9.52;3.10;;;;;;;18.52;66.42;101894.28;5022974;28;20073;-75
2022/07/22 09:33:14;;;;;;;11.55;3.03;;;;;;;18.55;66.25;101902.19;5025880;28;20025;-75
2022/07/22 09:35:40;;;;;;;9.63;3.17;;;;;;;18.61;66.41;101898.03;5024997;28;20032;-75
2022/07/22 09:38:08;;;;;;;8.05;3.13;;;;;;;18.68;67.75;101888.31;5028174;28;20470;-75
2022/07/22 09:40:39;;;;;;;10.50;3.20;;;;;;;18.77;65.23;101889.31;5031808;28;20013;-75
2022/07/22 09:43:11;;;;;;;14.15;3.25;;;;;;;18.85;64.47;101878.59;5033685;28;20029;-75
2022/07/22 09:45:45;;;;;;;37.22;8.20;;;;;;;18.95;67.65;101882.22;5025830;28;20029;-75
2022/07/22 09:48:11;;;;;;;12.60;3.30;;;;;;;19.00;65.31;101879.06;5022640;28;20235;-75
2022/07/22 09:50:36;;;;;;;11.40;3.20;;;;;;;19.09;65.80;101874.63;5021137;28;20539;-75
2022/07/22 09:53:01;;;;;;;11.95;3.65;;;;;;;19.13;64.14;101876.06;5017029;28;20091;-75
2022/07/22 09:55:28;;;;;;;10.32;3.63;;;;;;;19.21;65.13;101885.22;5017168;28;20025;-75
2022/07/22 09:57:56;;;;;;;14.90;3.50;;;;;;;19.30;62.16;101888.09;5017438;28;20503;-75
2022/07/22 10:00:26;;;;;;;10.43;3.45;;;;;;;19.33;63.16;101890.53;5018896;28;20087;-75
2022/07/22 10:02:52;;;;;;;11.45;3.40;;;;;;;19.36;64.10;101882.91;5023615;28;20033;-75
2022/07/22 10:05:20;;;;;;;7.57;3.17;;;;;;;19.43;65.36;101888.66;5023438;28;20505;-75
2022/07/22 10:07:46;;;;;;;11.57;3.22;;;;;;;19.44;66.24;101884.91;5032202;28;20499;-75
2022/07/22 10:10:14;;;;;;;12.13;3.25;;;;;;;19.46;66.10;101893.81;5020454;28;20441;-74
2022/07/22 10:12:40;;;;;;;16.30;3.70;;;;;;;19.47;66.04;101895.53;5024473;28;20037;-75
2022/07/22 10:15:07;;;;;;;10.55;2.78;;;;;;;19.49;68.76;101896.25;5018531;28;20032;-75
2022/07/22 10:17:35;;;;;;;9.35;3.28;;;;;;;19.53;69.17;101884.06;5025701;28;20040;-75
2022/07/22 10:20:01;;;;;;;10.80;3.45;;;;;;;19.50;65.02;101889.81;5027792;28;20042;-75
2022/07/22 10:22:39;;;;;;;10.45;3.15;;;;;;;19.57;68.05;101887.34;5028551;28;20037;-75
2022/07/22 10:25:08;;;;;;;12.30;3.38;;;;;;;19.65;66.55;101886.59;5027036;28;20028;-75
2022/07/22 10:27:52;;;;;;;19.30;4.22;;;;;;;19.67;66.47;101884.59;5028173;28;20045;-75
2022/07/22 10:30:23;;;;;;;10.63;3.55;;;;;;;19.62;64.56;101890.50;5020781;28;20132;-75
2022/07/22 10:33:09;;;;;;;12.32;3.65;;;;;;;19.67;66.99;101890.06;5022339;28;20110;-76
2022/07/22 10:36:01;;;;;;;15.43;3.78;;;;;;;19.80;69.41;101889.78;5032408;28;20041;-75
2022/07/22 10:38:28;;;;;;;14.30;3.70;;;;;;;19.87;64.03;101891.75;5025665;28;20037;-76
2022/07/22 10:41:01;;;;;;;14.48;4.55;;;;;;;19.90;64.18;101896.06;5026152;28;20041;-76
2022/07/22 10:43:30;;;;;;;12.38;3.60;;;;;;;19.87;63.44;101889.03;5025511;28;20115;-76
2022/07/22 10:46:02;;;;;;;10.65;3.70;;;;;;;19.93;65.72;101883.97;5029961;28;20041;-76
2022/07/22 10:48:37;;;;;;;16.08;4.20;;;;;;;19.97;64.26;101879.94;5031645;28;20373;-76
2022/07/22 10:51:12;;;;;;;15.75;4.25;;;;;;;19.99;63.93;101883.41;5033315;28;20037;-76
2022/07/22 10:53:40;;;;;;;14.82;4.18;;;;;;;20.00;63.35;101880.53;5029912;28;20034;-76
2022/07/22 10:56:29;;;;;;;12.98;4.05;;;;;;;20.04;65.31;101872.88;5018757;28;20077;-76
2022/07/22 10:59:11;;;;;;;;;;;;;;;20.08;66.91;101871.56;5034170;28;20025;-76
2022/07/22 11:01:38;;;;;;;17.52;4.15;;;;;;;19.94;59.72;101866.59;5030553;28;19927;-76
2022/07/22 11:04:26;;;;;;;16.15;4.75;;;;;;;19.89;63.32;101867.06;5024899;28;20645;-76
2022/07/22 11:06:54;;;;;;;17.58;4.65;;;;;;;19.71;58.18;101865.06;5046390;28;20493;-76
2022/07/22 11:09:23;;;;;;;12.38;4.30;;;;;;;19.67;61.06;101868.25;5030338;28;20033;-76
2022/07/22 11:11:52;;;;;;;13.73;4.38;;;;;;;19.71;64.82;101859.59;5030641;28;20067;-76
2022/07/22 11:14:19;;;;;;;11.60;3.53;;;;;;;19.75;66.02;101860.16;5027930;28;20036;-76